createdAt,value
2023-03-20T00:00:54.350Z,10.70
2023-03-20T00:03:57.985Z,10.60
2023-03-20T00:07:01.546Z,10.70
2023-03-20T00:10:06.876Z,10.70
2023-03-20T00:13:15.824Z,10.70
2023-03-20T00:16:18.853Z,10.60
2023-03-20T00:19:24.184Z,10.70
2023-03-20T00:22:29.342Z,10.70
2023-03-20T00:25:34.189Z,10.60
2023-03-20T00:28:40.941Z,10.60
2023-03-20T00:31:44.829Z,10.60
2023-03-20T00:34:47.858Z,10.50
2023-03-20T00:37:51.782Z,10.40
2023-03-20T00:40:56.100Z,10.40
2023-03-20T00:44:01.931Z,10.50
2023-03-20T00:47:11.404Z,10.40
2023-03-20T00:50:20.648Z,10.40
2023-03-20T00:53:23.591Z,10.40
2023-03-20T00:56:33.618Z,10.50
2023-03-20T00:59:40.053Z,10.60
2023-03-20T01:02:43.154Z,10.50
2023-03-20T01:05:46.726Z,10.60
2023-03-20T01:08:49.687Z,10.50
2023-03-20T01:11:54.228Z,10.60
2023-03-20T01:14:58.885Z,10.60
2023-03-20T01:18:01.859Z,10.50
2023-03-20T01:21:05.172Z,10.50
2023-03-20T01:24:08.711Z,10.60
2023-03-20T01:27:15.918Z,10.60
2023-03-20T01:30:22.626Z,10.60
2023-03-20T01:33:26.537Z,10.60
2023-03-20T01:36:29.662Z,10.60
2023-03-20T01:39:35.898Z,10.60
2023-03-20T01:42:40.282Z,10.60
2023-03-20T01:45:50.785Z,10.60
2023-03-20T01:49:05.667Z,10.60
2023-03-20T01:52:08.617Z,10.50
2023-03-20T01:55:12.044Z,10.50
2023-03-20T01:58:22.231Z,10.50
2023-03-20T02:01:27.599Z,10.40
2023-03-20T02:04:35.020Z,10.40
2023-03-20T02:07:40.290Z,10.30
2023-03-20T02:10:45.829Z,10.30
2023-03-20T02:13:52.544Z,10.30
2023-03-20T02:16:55.903Z,10.20
2023-03-20T02:20:08.011Z,10.20
2023-03-20T02:23:47.688Z,10.10
2023-03-20T02:27:03.420Z,10.10
2023-03-20T02:30:49.188Z,10.00
2023-03-20T02:34:20.461Z,10.00
2023-03-20T02:37:52.109Z,9.90
2023-03-20T02:41:02.109Z,9.90
2023-03-20T02:44:10.706Z,9.90
2023-03-20T02:47:20.266Z,9.90
2023-03-20T02:50:33.102Z,9.80
2023-03-20T02:53:44.381Z,9.70
2023-03-20T02:56:54.974Z,9.70
2023-03-20T03:00:01.756Z,9.50
2023-03-20T03:03:10.991Z,9.50
2023-03-20T03:06:21.459Z,9.60
2023-03-20T03:09:29.571Z,9.50
2023-03-20T03:12:36.761Z,9.50
2023-03-20T03:15:42.142Z,9.40
2023-03-20T03:18:46.951Z,9.40
2023-03-20T03:21:50.545Z,9.40
2023-03-20T03:24:56.117Z,9.50
2023-03-20T03:28:05.300Z,9.50
2023-03-20T03:31:10.864Z,9.50
2023-03-20T03:34:17.693Z,9.50
2023-03-20T03:37:39.951Z,9.50
2023-03-20T03:40:47.441Z,9.40
2023-03-20T03:43:56.721Z,9.30
2023-03-20T03:47:05.335Z,9.30
2023-03-20T03:50:12.814Z,9.30
2023-03-20T03:53:19.721Z,9.30
2023-03-20T03:56:27.088Z,9.30
2023-03-20T03:59:35.412Z,9.30
2023-03-20T04:02:38.780Z,9.30
2023-03-20T04:05:44.693Z,9.30
2023-03-20T04:08:47.632Z,9.20
2023-03-20T04:11:53.890Z,9.20
2023-03-20T04:14:56.965Z,9.10
2023-03-20T04:18:00.054Z,9.10
2023-03-20T04:21:03.221Z,9.10
2023-03-20T04:24:06.795Z,9.20
2023-03-20T04:27:11.411Z,9.20
2023-03-20T04:30:14.663Z,9.20
2023-03-20T04:33:17.659Z,9.10
2023-03-20T04:36:20.876Z,9.20
2023-03-20T04:39:24.015Z,9.20
2023-03-20T04:42:28.352Z,9.20
2023-03-20T04:45:31.363Z,9.10
2023-03-20T04:48:34.327Z,9.20
2023-03-20T04:51:37.294Z,9.30
2023-03-20T04:54:40.273Z,9.20
2023-03-20T04:57:44.550Z,9.20
2023-03-20T05:00:48.081Z,9.20
2023-03-20T05:03:52.017Z,9.20
2023-03-20T05:06:55.287Z,9.20
2023-03-20T05:09:58.216Z,9.20
2023-03-20T05:13:02.491Z,9.30
2023-03-20T05:16:05.834Z,9.30
2023-03-20T05:19:08.789Z,9.30
2023-03-20T05:22:11.858Z,9.30
2023-03-20T05:25:14.900Z,9.30
2023-03-20T05:28:19.230Z,9.30
2023-03-20T05:31:22.220Z,9.20
2023-03-20T05:34:25.566Z,9.20
2023-03-20T05:37:28.561Z,9.10
2023-03-20T05:40:31.617Z,9.20
2023-03-20T05:43:36.237Z,9.10
2023-03-20T05:46:39.214Z,9.10
2023-03-20T05:49:42.161Z,9.10
2023-03-20T05:52:47.820Z,9.10
2023-03-20T05:55:50.750Z,9.10
2023-03-20T05:58:55.035Z,9.00
2023-03-20T06:01:57.973Z,9.00
2023-03-20T06:05:01.170Z,9.10
2023-03-20T06:08:05.088Z,9.10
2023-03-20T06:11:08.320Z,9.10
2023-03-20T06:14:12.669Z,9.10
2023-03-20T06:17:15.790Z,9.10
2023-03-20T06:20:19.177Z,9.10
2023-03-20T06:23:22.753Z,9.10
2023-03-20T06:26:26.044Z,9.00
2023-03-20T06:29:30.520Z,9.10
2023-03-20T06:32:33.766Z,9.10
2023-03-20T06:35:37.809Z,9.10
2023-03-20T06:38:41.204Z,9.10
2023-03-20T06:41:44.288Z,9.20
2023-03-20T06:44:48.626Z,9.20
2023-03-20T06:47:51.580Z,9.20
2023-03-20T06:50:54.662Z,9.30
2023-03-20T06:53:57.650Z,9.30
2023-03-20T06:57:00.889Z,9.30
2023-03-20T07:00:06.086Z,9.40
2023-03-20T07:03:10.084Z,9.40
2023-03-20T07:06:13.367Z,9.50
2023-03-20T07:09:17.492Z,9.50
2023-03-20T07:12:20.716Z,9.50
2023-03-20T07:15:25.464Z,9.60
2023-03-20T07:18:28.650Z,9.60
2023-03-20T07:21:31.799Z,9.60
2023-03-20T07:24:35.473Z,9.60
2023-03-20T07:27:38.776Z,9.60
2023-03-20T07:30:43.065Z,9.60
2023-03-20T07:33:46.075Z,9.70
2023-03-20T07:36:49.057Z,9.70
2023-03-20T07:39:52.008Z,9.80
2023-03-20T07:42:54.975Z,9.80
2023-03-20T07:45:59.370Z,9.70
2023-03-20T07:49:02.482Z,9.70
2023-03-20T07:52:05.480Z,9.70
2023-03-20T07:55:09.080Z,9.80
2023-03-20T07:58:12.058Z,9.80
2023-03-20T08:01:16.456Z,9.90
2023-03-20T08:04:22.533Z,10.00
2023-03-20T08:07:25.885Z,10.00
2023-03-20T08:10:29.001Z,10.00
2023-03-20T08:13:32.013Z,10.00
2023-03-20T08:16:36.605Z,10.00
2023-03-20T08:19:39.562Z,10.10
2023-03-20T08:22:42.784Z,10.20
2023-03-20T08:25:49.469Z,10.20
2023-03-20T08:28:52.862Z,10.20
2023-03-20T08:31:57.758Z,10.20
2023-03-20T08:35:00.773Z,10.20
2023-03-20T08:38:04.247Z,10.20
2023-03-20T08:41:08.159Z,10.20
2023-03-20T08:44:11.716Z,10.30
2023-03-20T08:47:16.169Z,10.30
2023-03-20T08:50:19.564Z,10.30
2023-03-20T08:53:22.601Z,10.30
2023-03-20T08:56:25.604Z,10.40
2023-03-20T08:59:28.839Z,10.40
2023-03-20T09:02:33.267Z,10.50
2023-03-20T09:05:38.434Z,10.60
2023-03-20T09:08:41.662Z,10.60
2023-03-20T09:11:44.650Z,10.60
2023-03-20T09:14:47.590Z,10.50
2023-03-20T09:17:51.921Z,10.40
2023-03-20T09:20:56.473Z,10.40
2023-03-20T09:23:59.497Z,10.50
2023-03-20T09:27:03.775Z,10.40
2023-03-20T09:30:09.065Z,10.50
2023-03-20T09:33:14.776Z,10.50
2023-03-20T09:36:18.011Z,10.50
2023-03-20T09:39:21.009Z,10.50
2023-03-20T09:42:35.904Z,10.60
2023-03-20T09:45:48.677Z,10.70
2023-03-20T09:49:00.261Z,10.70
2023-03-20T09:52:11.209Z,10.80
2023-03-20T09:55:17.372Z,10.90
2023-03-20T09:58:25.052Z,10.90
2023-03-20T10:01:34.256Z,10.80
2023-03-20T10:04:40.038Z,10.80
2023-03-20T10:07:43.113Z,10.90
2023-03-20T10:10:52.915Z,10.90
2023-03-20T10:14:07.673Z,10.90
2023-03-20T10:17:21.813Z,10.80
2023-03-20T10:20:34.432Z,10.80
2023-03-20T10:23:42.122Z,10.90
2023-03-20T10:26:45.291Z,10.90
2023-03-20T10:29:56.736Z,10.80
2023-03-20T10:33:17.094Z,10.80
2023-03-20T10:36:38.995Z,10.70
2023-03-20T10:39:53.101Z,10.80
2023-03-20T10:43:00.028Z,10.80
2023-03-20T10:46:08.016Z,10.80
2023-03-20T10:49:18.499Z,10.80
2023-03-20T10:52:27.353Z,10.80
2023-03-20T10:55:34.103Z,10.70
2023-03-20T10:58:41.331Z,10.80
2023-03-20T11:01:44.278Z,10.90
2023-03-20T11:04:47.622Z,11.10
2023-03-20T11:07:54.270Z,11.10
2023-03-20T11:11:02.085Z,11.10
2023-03-20T11:14:16.730Z,11.10
2023-03-20T11:17:19.693Z,11.10
2023-03-20T11:20:22.783Z,11.20
2023-03-20T11:23:30.222Z,11.30
2023-03-20T11:26:37.688Z,11.40
2023-03-20T11:29:45.179Z,11.50
2023-03-20T11:32:50.736Z,11.40
2023-03-20T11:35:56.247Z,11.30
2023-03-20T11:39:07.156Z,11.30
2023-03-20T11:42:24.634Z,11.20
2023-03-20T11:45:30.049Z,11.30
2023-03-20T11:48:39.234Z,11.20
2023-03-20T11:51:42.214Z,11.10
2023-03-20T11:54:51.358Z,11.20
2023-03-20T11:57:57.898Z,11.20
2023-03-20T12:01:02.909Z,11.20
2023-03-20T12:04:11.249Z,11.20
2023-03-20T12:07:17.638Z,11.20
2023-03-20T12:10:23.080Z,11.20
2023-03-20T12:13:29.846Z,11.20
2023-03-20T12:16:36.628Z,11.20
2023-03-20T12:19:41.473Z,11.30
2023-03-20T12:22:50.993Z,11.40
2023-03-20T12:26:01.021Z,11.50
2023-03-20T12:29:11.041Z,11.50
2023-03-20T12:32:18.624Z,11.50
2023-03-20T12:35:32.501Z,11.60
2023-03-20T12:38:36.242Z,11.70
2023-03-20T12:41:48.279Z,11.70
2023-03-20T12:44:57.257Z,11.70
2023-03-20T12:48:36.883Z,11.80
2023-03-20T12:51:50.438Z,11.80
2023-03-20T12:55:13.185Z,12.10
2023-03-20T12:58:27.146Z,12.70
2023-03-20T13:01:33.105Z,13.00
2023-03-20T13:05:04.253Z,13.00
2023-03-20T13:08:37.061Z,13.10
2023-03-20T13:11:48.136Z,13.00
2023-03-20T13:15:00.298Z,13.00
2023-03-20T13:18:09.947Z,13.00
2023-03-20T13:21:18.319Z,12.80
2023-03-20T13:24:32.027Z,12.70
2023-03-20T13:27:41.847Z,12.50
2023-03-20T13:30:53.978Z,12.40
2023-03-20T13:34:02.684Z,12.40
2023-03-20T13:37:24.115Z,12.30
2023-03-20T13:40:29.861Z,12.10
2023-03-20T13:43:35.935Z,12.00
2023-03-20T13:46:44.164Z,12.10
2023-03-20T13:49:55.778Z,12.00
2023-03-20T13:53:04.918Z,12.00
2023-03-20T13:56:15.403Z,11.90
2023-03-20T13:59:41.229Z,11.80
2023-03-20T14:03:15.021Z,11.80
2023-03-20T14:06:19.727Z,11.90
2023-03-20T14:09:27.606Z,11.80
2023-03-20T14:12:33.833Z,11.80
2023-03-20T14:15:39.329Z,11.80
2023-03-20T14:18:45.437Z,11.90
2023-03-20T14:21:49.275Z,11.80
2023-03-20T14:25:00.688Z,11.90
2023-03-20T14:28:10.845Z,12.00
2023-03-20T14:31:23.271Z,11.90
2023-03-20T14:34:27.591Z,11.90
2023-03-20T14:37:37.681Z,11.90
2023-03-20T14:40:49.922Z,11.80
2023-03-20T14:44:09.391Z,11.80
2023-03-20T14:47:26.793Z,11.80
2023-03-20T14:50:35.346Z,11.70
2023-03-20T14:53:41.490Z,11.70
2023-03-20T14:56:44.567Z,11.60
2023-03-20T14:59:49.813Z,11.50
2023-03-20T15:02:54.847Z,11.40
2023-03-20T15:06:02.558Z,11.40
2023-03-20T15:09:09.251Z,11.40
2023-03-20T15:12:15.032Z,11.40
2023-03-20T15:15:26.546Z,11.40
2023-03-20T15:18:30.110Z,11.30
2023-03-20T15:21:37.285Z,11.30
2023-03-20T15:24:40.272Z,11.20
2023-03-20T15:27:44.114Z,11.30
2023-03-20T15:30:49.004Z,11.30
2023-03-20T15:33:52.440Z,11.30
2023-03-20T15:36:59.654Z,11.30
2023-03-20T15:40:13.388Z,11.30
2023-03-20T15:43:20.481Z,11.20
2023-03-20T15:46:27.517Z,11.20
2023-03-20T15:49:33.317Z,11.20
2023-03-20T15:52:42.746Z,11.30
2023-03-20T15:55:50.628Z,11.20
2023-03-20T15:58:55.259Z,11.20
2023-03-20T16:02:00.384Z,11.10
2023-03-20T16:05:03.702Z,11.10
2023-03-20T16:08:23.561Z,11.10
2023-03-20T16:11:26.570Z,10.90
2023-03-20T16:14:32.016Z,10.90
2023-03-20T16:17:36.111Z,10.80
2023-03-20T16:20:45.060Z,10.90
2023-03-20T16:23:52.842Z,10.80
2023-03-20T16:26:56.803Z,10.80
2023-03-20T16:30:00.233Z,10.80
2023-03-20T16:33:07.865Z,10.60
2023-03-20T16:36:18.791Z,10.60
2023-03-20T16:39:25.531Z,10.60
2023-03-20T16:42:30.586Z,10.60
2023-03-20T16:45:36.007Z,10.50
2023-03-20T16:48:39.213Z,10.60
2023-03-20T16:51:44.562Z,10.70
2023-03-20T16:54:48.848Z,10.70
2023-03-20T16:57:55.320Z,10.70
2023-03-20T17:01:01.158Z,10.80
2023-03-20T17:04:15.501Z,10.70
2023-03-20T17:07:23.850Z,10.60
2023-03-20T17:10:30.076Z,10.70
2023-03-20T17:13:33.137Z,10.70
2023-03-20T17:16:36.680Z,10.70
2023-03-20T17:19:39.696Z,10.70
2023-03-20T17:22:42.669Z,10.70
2023-03-20T17:25:48.998Z,10.60
2023-03-20T17:28:52.470Z,10.70
2023-03-20T17:31:55.544Z,10.70
2023-03-20T17:34:58.547Z,10.70
2023-03-20T17:38:01.514Z,10.70
2023-03-20T17:41:06.484Z,10.60
2023-03-20T17:44:10.528Z,10.60
2023-03-20T17:47:16.465Z,10.60
2023-03-20T17:50:20.330Z,10.60
2023-03-20T17:53:24.937Z,10.60
2023-03-20T17:56:30.231Z,10.60
2023-03-20T17:59:33.374Z,10.60
2023-03-20T18:02:36.618Z,10.50
2023-03-20T18:05:40.078Z,10.40
2023-03-20T18:08:43.041Z,10.40
2023-03-20T18:11:47.439Z,10.40
2023-03-20T18:14:50.372Z,10.30
2023-03-20T18:17:53.418Z,10.30
2023-03-20T18:20:57.448Z,10.30
2023-03-20T18:24:00.420Z,10.30
2023-03-20T18:27:04.836Z,10.30
2023-03-20T18:30:15.549Z,10.30
2023-03-20T18:33:19.362Z,10.20
2023-03-20T18:36:24.805Z,10.20
2023-03-20T18:39:27.789Z,10.20
2023-03-20T18:42:32.089Z,10.20
2023-03-20T18:45:35.043Z,10.20
2023-03-20T18:48:38.041Z,10.20
2023-03-20T18:51:40.983Z,10.10
2023-03-20T18:54:43.955Z,10.00
2023-03-20T18:57:48.563Z,10.10
2023-03-20T19:00:53.514Z,10.10
2023-03-20T19:03:56.504Z,10.10
2023-03-20T19:06:59.496Z,10.00
2023-03-20T19:10:02.640Z,10.10
2023-03-20T19:13:08.444Z,10.10
2023-03-20T19:16:24.410Z,10.00
2023-03-20T19:19:29.585Z,9.90
2023-03-20T19:22:32.586Z,9.90
2023-03-20T19:25:36.760Z,9.90
2023-03-20T19:28:41.761Z,9.90
2023-03-20T19:31:44.839Z,9.90
2023-03-20T19:35:35.211Z,9.90
2023-03-20T19:38:14.770Z,9.80
2023-03-20T19:41:19.849Z,9.90
2023-03-20T19:44:24.465Z,9.90
2023-03-20T19:47:27.405Z,9.80
2023-03-20T19:50:33.827Z,9.80
2023-03-20T19:53:36.727Z,9.70
2023-03-20T19:56:40.447Z,9.80
2023-03-20T19:59:44.798Z,9.70
2023-03-20T20:02:48.775Z,9.70
2023-03-20T20:05:53.932Z,9.60
2023-03-20T20:08:56.869Z,9.60
2023-03-20T20:11:59.788Z,9.60
2023-03-20T20:15:04.159Z,9.50
2023-03-20T20:18:07.499Z,9.60
2023-03-20T20:22:06.242Z,9.60
2023-03-20T20:24:34.702Z,9.50
2023-03-20T20:27:37.842Z,9.60
2023-03-20T20:30:42.213Z,9.60
2023-03-20T20:34:01.189Z,9.70
2023-03-20T20:40:31.989Z,9.60
2023-03-20T20:44:11.443Z,9.60
2023-03-20T20:46:59.625Z,9.60
2023-03-20T20:50:03.922Z,9.50
2023-03-20T20:53:08.149Z,9.60
2023-03-20T20:56:11.208Z,9.60
2023-03-20T20:59:14.180Z,9.50
2023-03-20T21:02:18.535Z,9.40
2023-03-20T21:05:22.337Z,9.50
2023-03-20T21:08:25.327Z,9.40
2023-03-20T21:11:28.708Z,9.40
2023-03-20T21:14:31.895Z,9.30
2023-03-20T21:17:36.254Z,9.40
2023-03-20T21:20:39.329Z,9.40
2023-03-20T21:23:42.972Z,9.30
2023-03-20T21:26:46.295Z,9.20
2023-03-20T21:29:50.537Z,9.20
2023-03-20T21:32:54.870Z,9.10
2023-03-20T21:35:57.955Z,9.10
2023-03-20T21:39:08.409Z,9.10
2023-03-20T21:42:12.729Z,9.10
2023-03-20T21:49:28.789Z,9.20
2023-03-20T22:02:21.425Z,9.20
2023-03-20T22:06:02.438Z,9.10
2023-03-20T22:30:01.594Z,8.90
2023-03-20T22:37:19.381Z,8.90
2023-03-20T22:40:29.186Z,8.90
2023-03-20T22:43:28.045Z,8.90
2023-03-20T22:46:43.926Z,9.00
2023-03-20T22:49:40.207Z,9.00
2023-03-20T22:52:49.091Z,9.00
2023-03-20T22:55:54.134Z,9.10
2023-03-20T22:58:57.196Z,9.10
2023-03-20T23:02:00.329Z,9.00
2023-03-20T23:05:03.300Z,9.10
2023-03-20T23:08:07.851Z,9.10
2023-03-20T23:11:12.548Z,9.10
2023-03-20T23:14:21.531Z,9.10
2023-03-20T23:17:26.892Z,9.20
2023-03-20T23:20:29.938Z,9.10
2023-03-20T23:23:33.335Z,9.20
2023-03-20T23:26:37.640Z,9.10
2023-03-20T23:29:40.868Z,9.10
2023-03-20T23:32:44.048Z,9.10
2023-03-20T23:35:48.387Z,9.10
2023-03-20T23:38:51.613Z,9.10
2023-03-20T23:42:12.003Z,9.00
2023-03-20T23:48:42.496Z,9.10
2023-03-20T23:51:45.572Z,9.10
2023-03-20T23:54:48.525Z,9.00
2023-03-20T23:57:52.850Z,9.00
